Detall de PIREP

Printer-friendly versionPDF version

[2014/10/16 07:12:00]
Flight IATA:CT3231
Pilot Number:042
Company ICAO:CAT
Aircraft Type:B463/A
PAX:28
Aircraft Registration:PAX
Departing Airport: ELLX
Destination Airport: LEPA
Alternate Airport:LEMH
Online: VATSIM
Route:RAPOR UN857 DIRMO UN855 PPG UP84 LORES
Flight Level:F330
No Slew and time accel
No pause
Crash detect
Detect pilot in Cockpit between each 30 and 45 minutes
07:12 Zero fuel Weight: 80445 Lbs, Fuel Weight: 22757 Lbs
07:12 VATSIM:ELLX 160550Z 20006KT 150V240 9999 SCT008 BKN011 12/12 Q1006 NOSIG
07:12 VATSIM:LEPA 160600Z 25006KT 220V280 9999 FEW022 18/17 Q1014 NOSIG
07:21 Parking Brakes off
07:28 Take-off
07:28 Take off Weight: 102152 Lbs
07:28 Wind: 202º @ 006 Knots Heading: 239º
07:28 POS N49º 37´ 35´´ E006º 12´ 38´´
07:28 Flaps:2 at 155 Knots
07:28 Gear Up: 152 Knots
07:29 Flaps:1 at 179 Knots
07:33 Flaps:0 at 241 Knots
07:43 Wind:269º@075 Knots Heading: 257º Ground Speed: 298 Knots Altitude 28937 ft
07:46 TOC
07:46 Fuel Weight: 18817 Lb
07:58 Wind:272º@093 Knots Heading: 243º Ground Speed: 333 Knots Altitude 32769 ft
08:13 Wind:276º@118 Knots Heading: 197º Ground Speed: 408 Knots Altitude 32837 ft
08:28 Wind:284º@099 Knots Heading: 190º Ground Speed: 429 Knots Altitude 32906 ft
08:43 Wind:287º@097 Knots Heading: 194º Ground Speed: 422 Knots Altitude 32982 ft
08:58 Wind:288º@082 Knots Heading: 195º Ground Speed: 424 Knots Altitude 32975 ft
09:05 TOD
09:05 Fuel Weight: 13562 Lb
09:13 Wind:274º@031 Knots Heading: 187º Ground Speed: 305 Knots Altitude 20902 ft
09:25 Flaps:1 at 217 Knots
09:25 Flaps:0 at 216 Knots
09:25 Gear Down: 215 Knots
09:25 Gear Up: 213 Knots
09:25 Flaps:1 at 212 Knots
09:27 Flaps:2 at 192 Knots
09:28 Wind:241º@014 Knots Heading: 238º Ground Speed: 166 Knots Altitude 3103 ft
09:28 Gear Down: 170 Knots
09:29 Flaps:3 at 154 Knots
09:30 Flaps:4 at 137 Knots
09:31 TouchDown:Rate -319 ft/min Speed: 121 Knots
09:31 VATSIM:LEPA 160800Z 26009KT 9999 FEW024 23/19 Q1015 NOSIG
09:31 Land
09:31 Wind:260º@009 Knots
09:31 Heading: 253º
09:31 Flight Duration: 02:03
09:31 Landing Weight: 93263 Lbs
09:31 POS N39º 32´ 52´´ E002º 44´ 44´´
09:35 Parking brakes on
09:35 Block to Block Duration: 02:14
09:35 Final Fuel: 12480 Lbls
09:35 Spent Fuel: 10277 Lbls
09:35 Flight Length: 732 NM
09:35 TOD Land Length: 118 NM

Exportar CSV

Powered by Drupal - Modified by Danger4k